createdAt,value
2019-03-11T00:04:36.577Z,75.57
2019-03-11T00:13:12.205Z,75.63
2019-03-11T00:15:42.798Z,75.68
2019-03-11T00:18:13.663Z,76.26
2019-03-11T00:24:05.586Z,76.21
2019-03-11T00:35:24.386Z,77.05
2019-03-11T00:44:00.219Z,77.21
2019-03-11T00:49:33.225Z,77.31
2019-03-11T00:58:08.640Z,77.36
2019-03-11T01:12:10.247Z,77.63
2019-03-11T01:20:25.966Z,77.50
2019-03-11T01:25:59.392Z,76.92
2019-03-11T01:36:59.864Z,76.79
2019-03-11T01:39:31.307Z,76.71
2019-03-11T01:45:04.849Z,76.79
2019-03-11T01:50:37.815Z,77.10
2019-03-11T01:58:56.243Z,77.35
2019-03-11T02:09:56.380Z,78.25
2019-03-11T02:12:28.455Z,78.06
2019-03-11T02:14:58.741Z,78.20
2019-03-11T02:17:29.073Z,78.44
2019-03-11T02:19:59.396Z,78.42
2019-03-11T02:22:29.638Z,78.75
2019-03-11T02:24:59.930Z,78.56
2019-03-11T02:27:30.163Z,78.72
2019-03-11T02:30:00.546Z,78.60
2019-03-11T02:32:37.886Z,78.60
2019-03-11T02:38:26.399Z,78.24
2019-03-11T02:40:56.672Z,78.19
2019-03-11T02:43:26.967Z,78.39
2019-03-11T02:45:57.257Z,78.32
2019-03-11T02:48:27.522Z,78.09
2019-03-11T02:51:13.858Z,77.86
2019-03-11T02:53:44.142Z,78.04
2019-03-11T02:56:14.454Z,77.97
2019-03-11T02:58:44.693Z,77.51
2019-03-11T03:04:43.067Z,77.65
2019-03-11T03:07:13.303Z,77.84
2019-03-11T03:12:47.948Z,77.76
2019-03-11T03:15:18.177Z,77.49
2019-03-11T03:17:48.419Z,77.66
2019-03-11T03:20:18.710Z,77.79
2019-03-11T03:22:48.971Z,77.89
2019-03-11T03:25:32.776Z,77.48
2019-03-11T03:31:30.659Z,77.42
2019-03-11T03:37:07.509Z,77.52
2019-03-11T03:39:38.065Z,77.42
2019-03-11T03:42:08.448Z,77.36
2019-03-11T03:51:07.789Z,76.90
2019-03-11T03:53:38.052Z,76.92
2019-03-11T03:56:08.331Z,77.14
2019-03-11T03:58:56.089Z,77.12
2019-03-11T04:01:26.386Z,77.22
2019-03-11T04:03:56.797Z,77.35
2019-03-11T04:09:32.148Z,76.52
2019-03-11T04:12:02.514Z,76.54
2019-03-11T04:17:15.858Z,77.01
2019-03-11T04:19:47.480Z,77.06
2019-03-11T04:25:30.908Z,77.30
2019-03-11T04:28:02.377Z,77.73
2019-03-11T04:33:43.525Z,77.24
2019-03-11T04:36:34.269Z,77.02
2019-03-11T04:39:25.391Z,77.23
2019-03-11T04:41:55.778Z,77.05
2019-03-11T04:47:29.251Z,77.26
2019-03-11T04:50:09.690Z,76.83
2019-03-11T04:52:59.821Z,76.90
2019-03-11T04:55:30.573Z,76.57
2019-03-11T04:58:20.173Z,76.92
2019-03-11T05:06:50.788Z,76.79
2019-03-11T05:12:04.534Z,77.00
2019-03-11T05:14:55.952Z,77.25
2019-03-11T05:17:48.496Z,77.34
2019-03-11T05:26:16.194Z,77.44
2019-03-11T05:28:49.494Z,77.25
2019-03-11T05:31:27.071Z,77.73
2019-03-11T05:34:19.297Z,77.82
2019-03-11T05:39:38.772Z,77.00
2019-03-11T05:42:16.574Z,77.28
2019-03-11T05:45:14.558Z,75.04
2019-03-11T05:47:45.259Z,75.39
2019-03-11T05:50:40.148Z,74.37
2019-03-11T05:53:11.249Z,75.82
2019-03-11T05:58:49.882Z,74.59
2019-03-11T06:04:08.545Z,73.88
2019-03-11T06:06:38.974Z,72.86
2019-03-11T06:09:09.284Z,72.35
2019-03-11T06:11:39.923Z,73.13
2019-03-11T06:16:53.718Z,71.51
2019-03-11T06:19:24.043Z,71.52
2019-03-11T06:30:35.969Z,69.27
2019-03-11T06:36:19.098Z,70.63
2019-03-11T06:39:10.837Z,70.74
2019-03-11T06:41:41.821Z,70.34
2019-03-11T06:44:13.679Z,69.83
2019-03-11T06:46:45.962Z,70.31
2019-03-11T06:55:34.700Z,67.96
2019-03-11T06:58:05.890Z,67.44
2019-03-11T07:00:37.238Z,67.00
2019-03-11T07:03:31.067Z,66.99
2019-03-11T07:06:02.633Z,67.02
2019-03-11T07:08:32.897Z,67.44
2019-03-11T07:11:24.154Z,68.86
2019-03-11T07:14:15.348Z,67.36
2019-03-11T07:19:42.774Z,66.72
2019-03-11T07:22:19.888Z,65.28
2019-03-11T07:24:50.321Z,69.06
2019-03-11T07:27:22.158Z,66.30
2019-03-11T07:30:11.467Z,66.85
2019-03-11T07:35:44.138Z,66.50
2019-03-11T07:41:18.374Z,67.49
2019-03-11T07:43:48.662Z,67.42
2019-03-11T07:49:04.645Z,64.12
2019-03-11T07:51:53.851Z,62.73
2019-03-11T07:54:32.134Z,62.30
2019-03-11T07:57:15.206Z,65.80
2019-03-11T07:59:45.543Z,65.37
2019-03-11T08:02:18.266Z,63.88
2019-03-11T08:10:53.610Z,65.01
2019-03-11T08:16:27.387Z,66.69
2019-03-11T08:22:00.973Z,63.65
2019-03-11T08:24:50.535Z,61.55
2019-03-11T08:27:41.942Z,61.22
2019-03-11T08:30:24.842Z,63.80
2019-03-11T08:33:14.756Z,63.95
2019-03-11T08:39:02.585Z,63.94
2019-03-11T08:41:34.349Z,63.88
2019-03-11T08:44:04.658Z,64.49
2019-03-11T08:46:34.840Z,65.13
2019-03-11T08:49:04.973Z,59.90
2019-03-11T08:51:35.098Z,63.80
2019-03-11T08:54:05.245Z,62.53
2019-03-11T08:56:35.391Z,63.10
2019-03-11T08:59:05.569Z,61.82
2019-03-11T09:01:35.729Z,63.17
2019-03-11T09:04:06.017Z,63.21
2019-03-11T09:06:36.144Z,60.87
2019-03-11T09:11:51.976Z,60.55
2019-03-11T09:17:11.325Z,60.12
2019-03-11T09:19:41.424Z,60.05
2019-03-11T09:22:11.613Z,57.42
2019-03-11T09:24:41.718Z,61.21
2019-03-11T09:27:11.846Z,59.79
2019-03-11T09:29:42.009Z,57.95
2019-03-11T09:32:12.121Z,57.21
2019-03-11T09:34:42.257Z,59.40
2019-03-11T09:37:12.733Z,61.05
2019-03-11T09:40:02.062Z,60.85
2019-03-11T09:42:32.753Z,61.78
2019-03-11T09:45:24.519Z,60.81
2019-03-11T09:47:54.811Z,63.17
2019-03-11T09:50:24.940Z,63.38
2019-03-11T09:52:55.088Z,61.13
2019-03-11T09:55:25.757Z,59.42
2019-03-11T09:57:56.076Z,58.77
2019-03-11T10:00:26.243Z,61.54
2019-03-11T10:02:56.520Z,60.79
2019-03-11T10:08:16.263Z,62.79
2019-03-11T10:11:10.815Z,61.83
2019-03-11T10:13:41.277Z,60.96
2019-03-11T10:16:12.164Z,58.75
2019-03-11T10:19:02.026Z,62.06
2019-03-11T10:24:15.920Z,59.31
2019-03-11T10:35:32.547Z,65.71
2019-03-11T10:38:06.654Z,60.57
2019-03-11T10:40:37.052Z,64.40
2019-03-11T10:43:07.380Z,61.77
2019-03-11T10:45:37.915Z,61.49
2019-03-11T10:48:08.251Z,64.12
2019-03-11T10:50:38.519Z,64.17
2019-03-11T10:53:08.822Z,63.43
2019-03-11T10:55:40.733Z,63.42
2019-03-11T10:58:11.109Z,63.39
2019-03-11T11:00:41.353Z,61.38
2019-03-11T11:03:11.623Z,63.81
2019-03-11T11:05:41.912Z,63.33
2019-03-11T11:08:12.353Z,61.19
2019-03-11T11:10:42.863Z,60.53
2019-03-11T11:13:13.124Z,59.62
2019-03-11T11:15:44.977Z,59.70
2019-03-11T11:18:15.214Z,61.13
2019-03-11T11:21:04.393Z,63.43
2019-03-11T11:23:34.647Z,64.14
2019-03-11T11:26:05.374Z,61.25
2019-03-11T11:28:35.735Z,60.72
2019-03-11T11:31:26.445Z,61.79
2019-03-11T11:36:39.702Z,57.68
2019-03-11T11:39:09.907Z,57.60
2019-03-11T11:41:41.657Z,56.68
2019-03-11T11:44:11.795Z,58.78
2019-03-11T11:46:42.074Z,58.79
2019-03-11T11:49:12.196Z,59.54
2019-03-11T11:51:42.420Z,58.51
2019-03-11T11:54:12.534Z,52.14
2019-03-11T11:56:42.665Z,59.17
2019-03-11T11:59:12.923Z,57.92
2019-03-11T12:01:43.082Z,58.84
2019-03-11T12:04:13.681Z,57.47
2019-03-11T12:09:55.811Z,57.45
2019-03-11T12:12:26.207Z,58.95
2019-03-11T12:14:56.324Z,56.23
2019-03-11T12:17:26.493Z,59.40
2019-03-11T12:19:56.609Z,59.50
2019-03-11T12:22:26.814Z,53.02
2019-03-11T12:24:57.015Z,46.69
2019-03-11T12:27:27.149Z,53.07
2019-03-11T12:29:57.472Z,51.88
2019-03-11T12:35:22.299Z,54.11
2019-03-11T12:38:11.625Z,49.59
2019-03-11T12:40:41.822Z,51.34
2019-03-11T12:43:12.138Z,52.16
2019-03-11T12:45:42.302Z,52.48
2019-03-11T12:51:15.525Z,54.68
2019-03-11T12:53:47.088Z,52.29
2019-03-11T12:56:31.251Z,47.24
2019-03-11T12:59:05.340Z,47.78
2019-03-11T13:01:48.716Z,48.61
2019-03-11T13:04:35.718Z,53.02
2019-03-11T13:07:25.846Z,48.87
2019-03-11T13:09:58.916Z,50.06
2019-03-11T13:15:57.315Z,49.55
2019-03-11T13:18:52.332Z,49.92
2019-03-11T13:21:33.369Z,53.97
2019-03-11T13:24:03.560Z,53.94
2019-03-11T13:26:33.691Z,54.23
2019-03-11T13:32:01.038Z,54.58
2019-03-11T13:34:42.461Z,50.85
2019-03-11T13:37:12.698Z,53.61
2019-03-11T13:39:42.928Z,54.42
2019-03-11T13:42:13.170Z,56.60
2019-03-11T13:44:43.348Z,57.90
2019-03-11T13:47:13.558Z,55.15
2019-03-11T13:49:43.772Z,58.27
2019-03-11T13:52:14.013Z,57.58
2019-03-11T13:54:44.292Z,55.61
2019-03-11T13:57:14.521Z,53.24
2019-03-11T14:00:01.960Z,53.71
2019-03-11T14:11:48.778Z,52.72
2019-03-11T14:17:34.882Z,57.04
2019-03-11T14:22:54.066Z,57.95
2019-03-11T14:25:25.191Z,52.26
2019-03-11T14:28:04.714Z,52.68
2019-03-11T14:30:55.861Z,52.44
2019-03-11T14:33:26.151Z,54.17
2019-03-11T14:35:56.392Z,52.41
2019-03-11T14:38:26.672Z,50.22
2019-03-11T14:40:56.904Z,49.87
2019-03-11T14:43:27.263Z,50.35
2019-03-11T14:45:57.886Z,51.62
2019-03-11T14:48:28.214Z,49.39
2019-03-11T14:50:58.581Z,50.53
2019-03-11T14:53:28.840Z,51.86
2019-03-11T14:55:59.162Z,50.41
2019-03-11T14:58:29.905Z,56.45
2019-03-11T15:01:12.327Z,56.37
2019-03-11T15:04:02.048Z,58.73
2019-03-11T15:06:32.596Z,61.23
2019-03-11T15:09:03.128Z,61.69
2019-03-11T15:11:56.004Z,54.41
2019-03-11T15:14:26.209Z,55.96
2019-03-11T15:16:56.523Z,54.84
2019-03-11T15:22:18.503Z,58.18
2019-03-11T15:27:55.733Z,62.04
2019-03-11T15:30:45.632Z,60.85
2019-03-11T15:33:29.370Z,61.55
2019-03-11T15:35:59.691Z,60.52
2019-03-11T15:38:29.873Z,62.43
2019-03-11T15:41:18.496Z,58.63
2019-03-11T15:44:15.192Z,59.59
2019-03-11T15:50:09.157Z,58.94
2019-03-11T15:52:43.056Z,55.08
2019-03-11T15:55:21.700Z,56.61
2019-03-11T16:07:23.307Z,57.83
2019-03-11T16:09:54.464Z,56.51
2019-03-11T16:12:26.432Z,54.42
2019-03-11T16:17:40.168Z,54.26
2019-03-11T16:23:37.165Z,54.11
2019-03-11T16:26:15.854Z,57.07
2019-03-11T16:37:26.641Z,60.31
2019-03-11T16:39:58.643Z,61.59
2019-03-11T16:45:35.742Z,61.91
2019-03-11T16:48:06.340Z,59.04
2019-03-11T16:50:55.858Z,60.79
2019-03-11T16:53:27.097Z,60.47
2019-03-11T16:56:09.428Z,62.79
2019-03-11T16:58:40.098Z,64.15
2019-03-11T17:04:09.446Z,61.29
2019-03-11T17:16:13.601Z,62.54
2019-03-11T17:18:45.828Z,66.03
2019-03-11T17:30:08.238Z,61.28
2019-03-11T17:32:38.797Z,61.51
2019-03-11T17:38:11.433Z,62.99
2019-03-11T17:43:44.719Z,64.33
2019-03-11T17:49:17.837Z,66.38
2019-03-11T17:51:48.304Z,66.53
2019-03-11T17:57:02.342Z,65.65
2019-03-11T18:05:19.001Z,66.30
2019-03-11T18:07:51.551Z,67.46
2019-03-11T18:10:29.384Z,67.86
2019-03-11T18:12:59.656Z,67.43
2019-03-11T18:16:09.370Z,67.11
2019-03-11T18:18:47.053Z,67.87
2019-03-11T18:21:17.383Z,67.95
2019-03-11T18:27:30.682Z,68.22
2019-03-11T18:33:20.401Z,68.30
2019-03-11T18:39:20.037Z,68.61
2019-03-11T18:41:51.547Z,68.29
2019-03-11T18:51:11.015Z,67.92
2019-03-11T18:54:03.853Z,67.25
2019-03-11T18:56:47.193Z,68.13
2019-03-11T19:02:15.248Z,68.94
2019-03-11T19:07:55.410Z,69.12
2019-03-11T19:10:57.118Z,68.39
2019-03-11T19:16:33.790Z,68.16
2019-03-11T19:21:57.977Z,68.46
2019-03-11T19:30:24.988Z,69.80
2019-03-11T19:33:17.942Z,69.27
2019-03-11T19:53:54.692Z,68.99
2019-03-11T20:05:34.541Z,68.63
2019-03-11T20:08:39.789Z,68.90
2019-03-11T20:11:25.007Z,69.13
2019-03-11T20:16:52.485Z,69.93
2019-03-11T20:20:06.272Z,69.72
2019-03-11T20:25:37.610Z,70.86
2019-03-11T20:28:47.102Z,70.13
2019-03-11T20:37:26.856Z,70.54
2019-03-11T20:40:10.924Z,69.55
2019-03-11T20:42:53.384Z,69.94
2019-03-11T20:49:10.780Z,68.85
2019-03-11T20:51:56.394Z,69.90
2019-03-11T20:54:57.691Z,70.39
2019-03-11T20:57:55.085Z,70.92
2019-03-11T21:07:15.087Z,69.78
2019-03-11T21:13:09.441Z,70.90
2019-03-11T21:19:08.141Z,71.27
2019-03-11T21:22:00.634Z,71.48
2019-03-11T21:24:59.226Z,71.65
2019-03-11T21:27:43.447Z,72.13
2019-03-11T21:30:33.978Z,72.21
2019-03-11T21:36:34.557Z,71.30
2019-03-11T21:42:37.731Z,71.67
2019-03-11T21:51:32.393Z,71.76
2019-03-11T21:54:05.954Z,71.69
2019-03-11T21:57:01.800Z,71.45
2019-03-11T22:03:01.343Z,71.49
2019-03-11T22:21:03.561Z,71.31
2019-03-11T22:23:47.552Z,70.93
2019-03-11T22:33:01.498Z,71.32
2019-03-11T22:35:49.506Z,70.08
2019-03-11T22:39:15.164Z,70.54
2019-03-11T22:42:15.386Z,71.12
2019-03-11T22:45:34.752Z,71.31
2019-03-11T22:51:27.421Z,71.91
2019-03-11T22:57:00.540Z,70.91
2019-03-11T23:00:00.811Z,71.03
2019-03-11T23:02:53.478Z,72.29
2019-03-11T23:05:57.629Z,72.03
2019-03-11T23:08:45.496Z,72.39
2019-03-11T23:11:37.470Z,72.52
2019-03-11T23:20:10.310Z,73.03
2019-03-11T23:23:21.846Z,73.18
2019-03-11T23:26:04.694Z,72.97
2019-03-11T23:28:52.623Z,73.01
2019-03-11T23:31:52.135Z,72.57
2019-03-11T23:34:46.224Z,72.70
2019-03-11T23:37:43.786Z,72.48
2019-03-11T23:40:31.797Z,72.54
2019-03-11T23:43:26.242Z,73.19
